createdAt,value
2018-02-23T06:31:12.561Z,0
2018-02-23T06:31:44.583Z,0
2018-02-23T06:32:16.610Z,0
2018-02-23T06:32:48.646Z,0
2018-02-23T06:33:20.659Z,0
2018-02-23T06:33:52.686Z,0
2018-02-23T06:34:24.663Z,0
2018-02-23T06:34:56.716Z,0
2018-02-23T06:35:28.844Z,5
2018-02-23T06:36:00.834Z,5
2018-02-23T06:36:32.935Z,5
2018-02-23T06:37:04.924Z,5
2018-02-23T06:37:36.908Z,5
2018-02-23T06:38:08.908Z,5
2018-02-23T06:38:40.926Z,5
2018-02-23T06:39:12.930Z,5
2018-02-23T06:39:44.902Z,5
2018-02-23T06:40:16.931Z,5
2018-02-23T06:40:48.986Z,5
2018-02-23T06:41:21.005Z,5
2018-02-23T06:41:53.009Z,5
2018-02-23T06:42:25.048Z,5
2018-02-23T06:42:57.079Z,5
2018-02-23T06:43:29.062Z,5
2018-02-23T06:44:01.463Z,5
2018-02-23T06:44:33.487Z,5
2018-02-23T06:45:05.542Z,5
2018-02-23T06:45:37.612Z,5
2018-02-23T06:46:09.619Z,5
2018-02-23T06:46:41.664Z,5
2018-02-23T06:47:13.751Z,5
2018-02-23T06:47:46.458Z,5
2018-02-23T06:48:18.472Z,5
2018-02-23T06:48:50.555Z,10
2018-02-23T06:49:22.769Z,10
2018-02-23T06:49:54.869Z,10
2018-02-23T06:50:26.863Z,10
2018-02-23T06:50:59.038Z,10
2018-02-23T06:51:31.029Z,10
2018-02-23T06:52:03.059Z,10
2018-02-23T06:52:35.105Z,10
2018-02-23T06:53:07.157Z,10
2018-02-23T06:53:39.155Z,10
2018-02-23T06:54:11.206Z,10
2018-02-23T06:54:43.195Z,10
2018-02-23T06:55:15.223Z,10
2018-02-23T06:55:47.258Z,10
2018-02-23T06:56:19.248Z,10
2018-02-23T06:56:51.294Z,10
2018-02-23T06:57:23.302Z,10
2018-02-23T06:57:55.336Z,10
2018-02-23T06:58:27.382Z,10
2018-02-23T06:58:59.344Z,10
2018-02-23T06:59:31.490Z,10
2018-02-23T07:00:03.643Z,10
2018-02-23T07:00:35.662Z,15
2018-02-23T07:01:07.683Z,15
2018-02-23T07:01:39.691Z,15
2018-02-23T07:02:11.750Z,15
2018-02-23T07:02:43.839Z,15
2018-02-23T07:03:15.861Z,15
2018-02-23T07:03:48.086Z,15
2018-02-23T07:04:20.554Z,15
2018-02-23T07:04:52.561Z,15
2018-02-23T07:05:24.651Z,15
2018-02-23T07:05:56.657Z,15
2018-02-23T07:06:28.774Z,15
2018-02-23T07:07:00.887Z,15
2018-02-23T07:07:32.892Z,15
2018-02-23T07:08:04.985Z,15
2018-02-23T07:08:37.022Z,15
2018-02-23T07:09:09.043Z,15
2018-02-23T07:09:41.212Z,15
2018-02-23T07:10:13.260Z,15
2018-02-23T07:10:45.336Z,15
2018-02-23T07:11:17.565Z,15
2018-02-23T07:11:49.574Z,20
2018-02-23T07:12:21.614Z,20
2018-02-23T07:12:53.600Z,20
2018-02-23T07:13:25.712Z,20
2018-02-23T07:13:57.758Z,20
2018-02-23T07:14:29.998Z,20
2018-02-23T07:15:02.013Z,20
2018-02-23T07:15:34.070Z,20
2018-02-23T07:16:06.080Z,20
2018-02-23T07:16:38.075Z,20
2018-02-23T07:17:10.113Z,20
2018-02-23T07:17:42.289Z,20
2018-02-23T07:18:14.944Z,20
2018-02-23T07:18:46.981Z,20
2018-02-23T07:19:19.004Z,20
2018-02-23T07:19:51.052Z,25
2018-02-23T07:20:23.076Z,25
2018-02-23T07:20:55.132Z,25
2018-02-23T07:21:27.141Z,25
2018-02-23T07:21:59.156Z,25
2018-02-23T07:22:31.152Z,25
2018-02-23T07:23:03.137Z,25
2018-02-23T07:23:35.156Z,25
2018-02-23T07:24:07.273Z,25
2018-02-23T07:24:39.289Z,25
2018-02-23T07:25:11.314Z,30
2018-02-23T07:25:43.355Z,30
2018-02-23T07:26:15.412Z,30
2018-02-23T07:26:47.420Z,30
2018-02-23T07:27:19.437Z,30
2018-02-23T07:27:51.492Z,30
2018-02-23T07:28:23.534Z,30
2018-02-23T07:28:55.572Z,30
2018-02-23T07:29:27.640Z,30
2018-02-23T07:29:59.614Z,35
2018-02-23T07:30:31.665Z,35
2018-02-23T07:31:03.673Z,35
2018-02-23T07:31:35.783Z,35
2018-02-23T07:32:07.943Z,35
2018-02-23T07:32:39.965Z,35
2018-02-23T07:33:11.972Z,35
2018-02-23T07:33:44.024Z,40
2018-02-23T07:34:16.047Z,40
2018-02-23T07:34:48.057Z,40
2018-02-23T07:35:20.055Z,40
2018-02-23T07:35:52.070Z,40
2018-02-23T07:36:24.468Z,40
2018-02-23T07:36:58.740Z,40
2018-02-23T07:37:30.754Z,40
2018-02-23T07:38:02.804Z,40
2018-02-23T07:38:34.999Z,40
2018-02-23T07:39:07.002Z,40
2018-02-23T07:39:39.080Z,40
2018-02-23T07:40:11.098Z,40
2018-02-23T07:40:43.074Z,40
2018-02-23T07:41:15.158Z,40
2018-02-23T07:41:47.211Z,40
2018-02-23T07:42:19.266Z,40
2018-02-23T07:42:51.288Z,40
2018-02-23T07:43:23.327Z,40
2018-02-23T07:43:55.322Z,45
2018-02-23T07:44:27.373Z,45
2018-02-23T07:44:59.384Z,45
2018-02-23T07:45:31.425Z,50
2018-02-23T07:46:03.460Z,50
2018-02-23T07:46:35.592Z,50
2018-02-23T07:47:08.161Z,55
2018-02-23T07:47:40.238Z,55
2018-02-23T07:48:12.305Z,55
2018-02-23T07:48:44.350Z,60
2018-02-23T07:49:16.321Z,60
2018-02-23T07:49:48.298Z,60
2018-02-23T07:50:20.444Z,65
2018-02-23T07:50:52.446Z,65
2018-02-23T07:51:24.506Z,65
2018-02-23T07:51:56.642Z,70
2018-02-23T07:52:28.665Z,70
2018-02-23T07:53:00.688Z,70
2018-02-23T07:53:32.735Z,70
2018-02-23T07:54:04.821Z,70
2018-02-23T07:54:36.828Z,70
2018-02-23T07:55:08.889Z,70
2018-02-23T07:55:41.046Z,70
2018-02-23T07:56:13.048Z,70
2018-02-23T07:56:45.127Z,70
2018-02-23T07:57:17.242Z,70
2018-02-23T07:57:49.302Z,70
2018-02-23T07:58:21.344Z,70
2018-02-23T07:58:53.410Z,70
2018-02-23T07:59:25.558Z,70
2018-02-23T07:59:57.680Z,70
2018-02-23T08:00:29.677Z,70
2018-02-23T08:01:02.044Z,70
2018-02-23T08:01:34.078Z,75
2018-02-23T08:02:06.140Z,75
2018-02-23T08:02:38.164Z,70
2018-02-23T08:03:10.675Z,75
2018-02-23T08:03:42.838Z,70
2018-02-23T08:04:14.872Z,75
2018-02-23T08:04:46.909Z,75
2018-02-23T08:05:18.938Z,75
2018-02-23T08:05:50.927Z,75
2018-02-23T08:06:23.768Z,75
2018-02-23T08:06:55.863Z,75
2018-02-23T08:07:28.144Z,75
2018-02-23T08:08:01.492Z,75
2018-02-23T08:08:33.588Z,75
2018-02-23T08:09:05.619Z,75
2018-02-23T08:09:37.567Z,75
2018-02-23T08:10:09.542Z,75
2018-02-23T08:10:41.548Z,75
2018-02-23T08:11:13.655Z,75
2018-02-23T08:11:45.778Z,75
2018-02-23T08:12:17.885Z,75
2018-02-23T08:12:49.922Z,75
2018-02-23T08:13:21.982Z,75
2018-02-23T08:13:53.979Z,75
2018-02-23T08:14:26.101Z,75
2018-02-23T08:14:58.198Z,75
2018-02-23T08:15:30.198Z,75
2018-02-23T08:16:02.222Z,75
2018-02-23T08:16:34.333Z,80
2018-02-23T08:17:06.407Z,80
2018-02-23T08:17:38.401Z,80
2018-02-23T08:18:10.468Z,80
2018-02-23T08:18:42.546Z,80
2018-02-23T08:19:14.726Z,75
2018-02-23T08:19:46.789Z,75
2018-02-23T08:20:19.004Z,80
2018-02-23T08:20:51.077Z,75
2018-02-23T08:21:23.043Z,80
2018-02-23T08:21:55.045Z,80
2018-02-23T08:22:27.132Z,80
2018-02-23T08:22:59.342Z,80
2018-02-23T08:23:31.575Z,80
2018-02-23T08:24:03.588Z,75
2018-02-23T08:24:35.572Z,80
2018-02-23T08:25:07.624Z,80
2018-02-23T08:25:39.653Z,80
2018-02-23T08:26:11.760Z,80
2018-02-23T08:26:43.809Z,80
2018-02-23T08:27:15.796Z,80
2018-02-23T08:27:47.822Z,80
2018-02-23T08:28:19.907Z,80
2018-02-23T08:28:51.925Z,80
2018-02-23T08:29:23.923Z,80
2018-02-23T08:29:55.938Z,70
2018-02-23T08:30:27.947Z,80
2018-02-23T08:30:59.988Z,75
2018-02-23T08:31:32.054Z,80
2018-02-23T08:32:04.089Z,80
2018-02-23T08:32:36.057Z,70
2018-02-23T08:33:08.096Z,70
2018-02-23T08:33:40.226Z,85
2018-02-23T08:34:12.250Z,85
2018-02-23T08:34:44.267Z,70
2018-02-23T08:35:16.290Z,60
2018-02-23T08:35:48.402Z,60
2018-02-23T08:36:20.490Z,55
2018-02-23T08:36:52.519Z,65
2018-02-23T08:37:24.613Z,90
2018-02-23T08:37:56.666Z,90
2018-02-23T08:38:28.682Z,90
2018-02-23T08:39:00.693Z,80
2018-02-23T08:39:32.680Z,95
2018-02-23T08:40:04.825Z,70
2018-02-23T08:40:36.881Z,65
2018-02-23T08:41:08.921Z,65
2018-02-23T08:41:40.942Z,80
2018-02-23T08:42:13.032Z,90
2018-02-23T08:42:45.051Z,80
2018-02-23T08:43:17.062Z,90
2018-02-23T08:43:49.190Z,70
2018-02-23T08:44:21.187Z,65
2018-02-23T08:44:53.211Z,80
2018-02-23T08:45:25.195Z,70
2018-02-23T08:45:57.446Z,90
2018-02-23T08:46:29.481Z,90
2018-02-23T08:47:01.519Z,90
2018-02-23T08:47:33.522Z,65
2018-02-23T08:48:05.572Z,95
2018-02-23T08:48:37.709Z,95
2018-02-23T08:49:09.739Z,65
2018-02-23T08:49:41.760Z,60
2018-02-23T08:50:13.785Z,60
2018-02-23T08:50:45.915Z,60
2018-02-23T08:51:17.891Z,65
2018-02-23T08:51:49.908Z,80
2018-02-23T08:52:22.082Z,95
2018-02-23T08:52:54.104Z,75
2018-02-23T08:53:26.130Z,75
2018-02-23T08:53:58.140Z,100
2018-02-23T08:54:30.256Z,105
2018-02-23T08:55:02.448Z,105
2018-02-23T08:55:34.490Z,105
2018-02-23T08:56:07.012Z,110
2018-02-23T08:56:39.093Z,105
2018-02-23T08:57:11.087Z,90
2018-02-23T08:57:43.155Z,95
2018-02-23T08:58:15.174Z,100
2018-02-23T08:58:47.231Z,100
2018-02-23T08:59:19.286Z,100
2018-02-23T08:59:51.322Z,95
2018-02-23T09:00:23.550Z,90
2018-02-23T09:00:55.634Z,115
2018-02-23T09:01:27.615Z,115
2018-02-23T09:01:59.656Z,115
2018-02-23T09:02:31.732Z,110
2018-02-23T09:03:03.788Z,105
2018-02-23T09:03:35.794Z,100
2018-02-23T09:04:07.845Z,95
2018-02-23T09:04:39.861Z,105
2018-02-23T09:05:11.901Z,105
2018-02-23T09:05:43.914Z,100
2018-02-23T09:06:15.932Z,100
2018-02-23T09:06:47.963Z,100
2018-02-23T09:07:19.981Z,100
2018-02-23T09:07:51.999Z,100
2018-02-23T09:08:24.194Z,100
2018-02-23T09:08:57.096Z,100
2018-02-23T09:09:29.156Z,100
2018-02-23T09:10:01.161Z,100
2018-02-23T09:10:33.173Z,100
2018-02-23T09:11:05.207Z,100
2018-02-23T09:11:37.174Z,105
2018-02-23T09:12:09.208Z,105
2018-02-23T09:12:41.331Z,105
2018-02-23T09:13:13.344Z,105
2018-02-23T09:13:45.371Z,105
2018-02-23T09:14:17.431Z,100
2018-02-23T09:14:49.565Z,100
2018-02-23T09:15:21.595Z,100
2018-02-23T09:15:53.682Z,100
2018-02-23T09:16:25.749Z,100
2018-02-23T09:16:57.740Z,100
2018-02-23T09:17:29.784Z,100
2018-02-23T09:18:01.820Z,105
2018-02-23T09:18:33.816Z,105
2018-02-23T09:19:05.852Z,105
2018-02-23T09:19:37.877Z,105
2018-02-23T09:20:09.849Z,105
2018-02-23T09:20:41.864Z,105
2018-02-23T09:21:13.935Z,105
2018-02-23T09:21:45.960Z,105
2018-02-23T09:22:17.960Z,105
2018-02-23T09:22:49.991Z,110
2018-02-23T09:23:22.013Z,115
2018-02-23T09:23:54.058Z,115
2018-02-23T09:24:26.087Z,110
2018-02-23T09:24:58.064Z,115
2018-02-23T09:25:30.056Z,115
2018-02-23T09:26:02.133Z,120
2018-02-23T09:26:34.184Z,120
2018-02-23T09:27:06.202Z,120
2018-02-23T09:27:38.337Z,110
2018-02-23T09:28:10.424Z,110
2018-02-23T09:28:42.461Z,105
2018-02-23T09:29:14.467Z,105
2018-02-23T09:29:46.529Z,105
2018-02-23T09:30:18.648Z,105
2018-02-23T09:30:50.744Z,100
2018-02-23T09:31:22.971Z,105
2018-02-23T09:31:55.101Z,110
2018-02-23T09:32:27.117Z,115
2018-02-23T09:32:59.220Z,120
2018-02-23T09:33:31.193Z,125
2018-02-23T09:34:03.326Z,120
2018-02-23T09:34:43.121Z,115
2018-02-23T09:35:17.548Z,120
2018-02-23T09:35:49.554Z,120
2018-02-23T09:36:21.529Z,130
2018-02-23T09:36:53.517Z,135
2018-02-23T09:37:26.120Z,135
2018-02-23T09:37:58.138Z,130
2018-02-23T09:38:30.166Z,130
2018-02-23T09:39:02.173Z,130
2018-02-23T09:39:34.180Z,135
2018-02-23T09:40:06.277Z,140
2018-02-23T09:40:38.304Z,140
2018-02-23T09:41:10.325Z,130
2018-02-23T09:41:42.345Z,125
2018-02-23T09:42:14.394Z,125
2018-02-23T09:42:46.445Z,125
2018-02-23T09:43:18.454Z,130
2018-02-23T09:43:50.407Z,135
2018-02-23T09:44:22.394Z,140
2018-02-23T09:44:54.407Z,150
2018-02-23T09:45:26.442Z,155
2018-02-23T09:45:58.525Z,160
2018-02-23T09:46:30.507Z,155
2018-02-23T09:47:02.512Z,150
2018-02-23T09:47:34.564Z,145
2018-02-23T09:48:06.605Z,145
2018-02-23T09:48:38.673Z,150
2018-02-23T09:49:10.679Z,150
2018-02-23T09:49:42.696Z,155
2018-02-23T09:50:14.760Z,160
2018-02-23T09:50:46.691Z,160
2018-02-23T09:51:18.704Z,165
2018-02-23T09:51:50.747Z,165
2018-02-23T09:52:22.768Z,165
2018-02-23T09:52:54.949Z,165
2018-02-23T09:53:26.990Z,150
2018-02-23T09:53:58.966Z,165
2018-02-23T09:54:30.974Z,165
2018-02-23T09:55:03.027Z,160
2018-02-23T09:55:35.103Z,155
2018-02-23T09:56:07.130Z,145
2018-02-23T09:56:39.291Z,140
2018-02-23T09:57:11.299Z,135
2018-02-23T09:57:43.347Z,135
2018-02-23T09:58:15.426Z,135
2018-02-23T09:58:47.421Z,135
2018-02-23T09:59:19.451Z,135
2018-02-23T09:59:51.481Z,135
2018-02-23T10:00:23.552Z,135
2018-02-23T10:00:55.556Z,135
2018-02-23T10:01:27.648Z,140
2018-02-23T10:01:59.660Z,140
2018-02-23T10:02:32.614Z,135
2018-02-23T10:03:04.751Z,125
2018-02-23T10:03:36.783Z,85
2018-02-23T10:04:08.891Z,100
2018-02-23T10:04:41.087Z,125
2018-02-23T10:05:13.071Z,130
2018-02-23T10:05:45.104Z,135
2018-02-23T10:06:17.109Z,140
2018-02-23T10:06:49.143Z,140
2018-02-23T10:07:21.211Z,140
2018-02-23T10:07:53.249Z,140
2018-02-23T10:08:25.203Z,140
2018-02-23T10:08:57.266Z,145
2018-02-23T10:09:29.315Z,145
2018-02-23T10:10:01.255Z,150
2018-02-23T10:10:33.283Z,110
2018-02-23T10:11:05.306Z,110
2018-02-23T10:11:37.312Z,100
2018-02-23T10:12:10.228Z,125
2018-02-23T10:12:42.256Z,100
2018-02-23T10:13:14.248Z,105
2018-02-23T10:13:46.248Z,100
2018-02-23T10:14:18.356Z,95
2018-02-23T10:14:50.402Z,90
2018-02-23T10:15:22.444Z,90
2018-02-23T10:15:54.456Z,95
2018-02-23T10:16:26.473Z,95
2018-02-23T10:16:58.487Z,120
2018-02-23T10:17:30.475Z,90
2018-02-23T10:18:02.516Z,85
2018-02-23T10:18:34.524Z,80
2018-02-23T10:19:06.489Z,80
2018-02-23T10:19:38.506Z,110
2018-02-23T10:20:10.802Z,75
2018-02-23T10:20:42.800Z,75
2018-02-23T10:21:14.918Z,75
2018-02-23T10:21:46.964Z,75
2018-02-23T10:22:18.984Z,75
2018-02-23T10:22:51.077Z,75
2018-02-23T10:23:23.131Z,75
2018-02-23T10:23:55.137Z,75
2018-02-23T10:24:27.239Z,105
2018-02-23T10:24:59.281Z,80
2018-02-23T10:25:31.279Z,85
2018-02-23T10:26:03.726Z,90
2018-02-23T10:26:35.743Z,140
2018-02-23T10:27:07.745Z,130
2018-02-23T10:27:39.776Z,85
2018-02-23T10:28:11.820Z,85
2018-02-23T10:28:43.864Z,90
2018-02-23T10:29:15.858Z,135
2018-02-23T10:29:47.937Z,110
2018-02-23T10:30:20.004Z,75
2018-02-23T10:30:52.048Z,70
2018-02-23T10:31:24.126Z,70
2018-02-23T10:31:56.238Z,70
2018-02-23T10:32:28.895Z,75
2018-02-23T10:33:02.509Z,130
2018-02-23T10:33:36.077Z,135
2018-02-23T10:34:08.215Z,85
2018-02-23T10:34:40.238Z,95
2018-02-23T10:35:12.275Z,115
2018-02-23T10:35:44.279Z,130
2018-02-23T10:36:16.336Z,95
2018-02-23T10:36:48.389Z,135
2018-02-23T10:37:20.410Z,150
2018-02-23T10:37:52.626Z,145
2018-02-23T10:38:25.469Z,155
2018-02-23T10:38:57.491Z,155
2018-02-23T10:39:29.498Z,150
2018-02-23T10:40:01.526Z,130
2018-02-23T10:40:33.675Z,155
2018-02-23T10:41:05.696Z,160
2018-02-23T10:41:37.720Z,165
2018-02-23T10:42:09.756Z,165
2018-02-23T10:42:41.808Z,165
2018-02-23T10:43:13.853Z,165
2018-02-23T10:43:45.836Z,165
2018-02-23T10:44:17.829Z,165
2018-02-23T10:44:49.857Z,165
2018-02-23T10:45:21.861Z,170
2018-02-23T10:45:54.014Z,170
2018-02-23T10:46:26.584Z,170
2018-02-23T10:46:58.597Z,160
2018-02-23T10:47:30.643Z,165
2018-02-23T10:48:02.656Z,165
2018-02-23T10:48:34.652Z,120
2018-02-23T10:49:06.735Z,105
2018-02-23T10:49:38.762Z,115
2018-02-23T10:50:10.800Z,105
2018-02-23T10:50:42.772Z,120
2018-02-23T10:51:14.796Z,105
2018-02-23T10:51:46.868Z,95
2018-02-23T10:52:18.886Z,95
2018-02-23T10:52:50.958Z,105
2018-02-23T10:53:23.028Z,105
2018-02-23T10:53:55.065Z,95
2018-02-23T10:54:27.222Z,95
2018-02-23T10:54:59.399Z,95
2018-02-23T10:55:31.427Z,95
2018-02-23T10:56:03.482Z,95
2018-02-23T10:56:35.464Z,95
2018-02-23T10:57:07.495Z,100
2018-02-23T10:57:39.502Z,100
2018-02-23T10:58:11.515Z,110
2018-02-23T10:58:43.561Z,105
2018-02-23T10:59:15.704Z,120
2018-02-23T10:59:47.655Z,110
2018-02-23T11:00:19.726Z,115
2018-02-23T11:00:51.742Z,115
2018-02-23T11:01:23.782Z,115
2018-02-23T11:01:55.808Z,115
2018-02-23T11:02:27.852Z,130
2018-02-23T11:03:00.569Z,175
2018-02-23T11:03:32.635Z,180
2018-02-23T11:04:04.741Z,180
2018-02-23T11:04:36.733Z,160
2018-02-23T11:05:08.741Z,110
2018-02-23T11:05:40.779Z,100
2018-02-23T11:06:12.906Z,100
2018-02-23T11:06:45.045Z,95
2018-02-23T11:07:17.252Z,95
2018-02-23T11:07:49.372Z,100
2018-02-23T11:08:21.425Z,100
2018-02-23T11:08:53.434Z,105
2018-02-23T11:09:25.479Z,100
2018-02-23T11:09:57.529Z,100
2018-02-23T11:10:29.535Z,95
2018-02-23T11:11:01.590Z,95
2018-02-23T11:11:33.645Z,95
2018-02-23T11:12:05.804Z,100
2018-02-23T11:12:37.840Z,100
2018-02-23T11:13:09.895Z,100
2018-02-23T11:13:41.908Z,100
2018-02-23T11:14:14.071Z,180
2018-02-23T11:14:46.305Z,105
2018-02-23T11:15:18.379Z,110
2018-02-23T11:15:50.473Z,110
2018-02-23T11:16:22.490Z,120
2018-02-23T11:16:54.570Z,160
2018-02-23T11:17:26.585Z,145
2018-02-23T11:17:58.616Z,130
2018-02-23T11:18:30.619Z,130
2018-02-23T11:19:02.661Z,135
2018-02-23T11:19:34.693Z,170
2018-02-23T11:20:06.796Z,220
2018-02-23T11:20:38.954Z,140
2018-02-23T11:21:11.064Z,135
2018-02-23T11:21:43.298Z,140
2018-02-23T11:22:15.326Z,225
2018-02-23T11:22:47.338Z,230
2018-02-23T11:23:19.698Z,230
2018-02-23T11:23:52.068Z,235
2018-02-23T11:24:24.103Z,235
2018-02-23T11:24:56.390Z,235
2018-02-23T11:25:28.373Z,230
2018-02-23T11:26:00.395Z,230
2018-02-23T11:26:32.408Z,235
2018-02-23T11:27:04.429Z,230
2018-02-23T11:27:36.945Z,235
2018-02-23T11:28:13.867Z,205
2018-02-23T11:28:46.538Z,220
2018-02-23T11:29:18.572Z,220
2018-02-23T11:29:51.464Z,195
2018-02-23T11:30:24.094Z,160
2018-02-23T11:30:56.115Z,165
2018-02-23T11:31:28.128Z,275
2018-02-23T11:32:00.130Z,275
2018-02-23T11:32:32.158Z,170
2018-02-23T11:33:05.081Z,165
2018-02-23T11:33:37.245Z,260
2018-02-23T11:34:09.259Z,270
2018-02-23T11:34:41.289Z,170
2018-02-23T11:35:13.277Z,260
2018-02-23T11:35:45.407Z,170
2018-02-23T11:36:17.423Z,270
2018-02-23T11:36:49.484Z,285
2018-02-23T11:37:21.527Z,280
2018-02-23T11:37:53.639Z,285
2018-02-23T11:38:25.642Z,280
2018-02-23T11:38:57.661Z,285
2018-02-23T11:39:29.726Z,290
2018-02-23T11:40:01.713Z,290
2018-02-23T11:40:33.700Z,290
2018-02-23T11:41:05.841Z,290
2018-02-23T11:41:37.887Z,275
2018-02-23T11:42:09.900Z,275
2018-02-23T11:42:41.956Z,280
2018-02-23T11:43:13.989Z,290
2018-02-23T11:43:46.168Z,290
2018-02-23T11:44:18.218Z,300
2018-02-23T11:44:50.244Z,295
2018-02-23T11:45:22.278Z,300
2018-02-23T11:45:54.322Z,300
2018-02-23T11:46:26.324Z,300
2018-02-23T11:46:58.384Z,300
2018-02-23T11:47:30.396Z,300
2018-02-23T11:48:03.078Z,260
2018-02-23T11:48:35.107Z,305
2018-02-23T11:49:07.163Z,310
2018-02-23T11:49:39.330Z,310
2018-02-23T11:50:11.492Z,310
2018-02-23T11:50:43.619Z,310
2018-02-23T11:51:15.642Z,305
2018-02-23T11:51:47.612Z,310
2018-02-23T11:52:19.617Z,315
2018-02-23T11:52:51.628Z,320
2018-02-23T11:53:23.652Z,325
2018-02-23T11:53:55.748Z,330
2018-02-23T11:54:27.776Z,330
2018-02-23T11:54:59.858Z,335
2018-02-23T11:55:31.896Z,340
2018-02-23T11:56:04.039Z,345
2018-02-23T11:56:36.116Z,350
2018-02-23T11:57:08.081Z,350
2018-02-23T11:57:40.104Z,350
2018-02-23T11:58:12.213Z,355
2018-02-23T11:58:44.333Z,360
2018-02-23T11:59:16.447Z,370
2018-02-23T11:59:48.487Z,370
2018-02-23T12:00:20.492Z,370
2018-02-23T12:00:52.606Z,375
2018-02-23T12:01:24.648Z,385
2018-02-23T12:01:56.671Z,385
2018-02-23T12:02:28.689Z,390
2018-02-23T12:03:00.751Z,395
2018-02-23T12:03:32.826Z,405
2018-02-23T12:04:04.852Z,410
2018-02-23T12:04:37.539Z,420
2018-02-23T12:05:09.543Z,430
2018-02-23T12:05:41.644Z,440
2018-02-23T12:06:13.653Z,450
2018-02-23T12:06:45.718Z,445
2018-02-23T12:07:18.717Z,435
2018-02-23T12:07:50.886Z,420
2018-02-23T12:08:22.949Z,420
2018-02-23T12:08:54.964Z,415
2018-02-23T12:09:27.172Z,415
2018-02-23T12:09:59.166Z,415
2018-02-23T12:10:31.300Z,415
2018-02-23T12:11:03.385Z,410
2018-02-23T12:11:35.405Z,415
2018-02-23T12:12:07.424Z,415
2018-02-23T12:12:39.474Z,410
2018-02-23T12:13:11.572Z,400
2018-02-23T12:13:43.635Z,315
2018-02-23T12:14:15.678Z,395
2018-02-23T12:14:47.685Z,335
2018-02-23T12:15:19.657Z,245
2018-02-23T12:15:51.802Z,430
2018-02-23T12:16:23.818Z,435
2018-02-23T12:16:55.829Z,440
2018-02-23T12:17:27.843Z,455
2018-02-23T12:17:59.832Z,450
2018-02-23T12:18:31.848Z,455
2018-02-23T12:19:04.696Z,465
2018-02-23T12:19:36.716Z,470
2018-02-23T12:20:08.755Z,445
2018-02-23T12:20:40.749Z,260
2018-02-23T12:21:12.898Z,480
2018-02-23T12:21:45.069Z,250
2018-02-23T12:22:17.059Z,220
2018-02-23T12:22:49.080Z,480
2018-02-23T12:23:21.126Z,490
2018-02-23T12:23:53.275Z,490
2018-02-23T12:24:25.284Z,485
2018-02-23T12:24:57.287Z,485
2018-02-23T12:25:29.305Z,480
2018-02-23T12:26:01.306Z,490
2018-02-23T12:26:33.315Z,505
2018-02-23T12:27:05.424Z,500
2018-02-23T12:27:37.439Z,500
2018-02-23T12:28:09.463Z,505
2018-02-23T12:28:41.509Z,505
2018-02-23T12:29:13.616Z,510
2018-02-23T12:29:45.740Z,515
2018-02-23T12:30:17.764Z,510
2018-02-23T12:30:49.919Z,515
2018-02-23T12:31:21.937Z,520
2018-02-23T12:31:53.969Z,495
2018-02-23T12:32:26.023Z,545
2018-02-23T12:32:58.018Z,565
2018-02-23T12:33:30.125Z,575
2018-02-23T12:34:02.233Z,585
2018-02-23T12:34:34.291Z,610
2018-02-23T12:35:06.318Z,625
2018-02-23T12:35:38.344Z,650
2018-02-23T12:36:10.486Z,730
2018-02-23T12:36:42.516Z,890
2018-02-23T12:37:14.516Z,1080
2018-02-23T12:37:46.537Z,1245
2018-02-23T12:38:18.589Z,1340
2018-02-23T12:38:50.673Z,1295
2018-02-23T12:39:22.701Z,1300
2018-02-23T12:39:54.715Z,1325
2018-02-23T12:40:26.757Z,1345
2018-02-23T12:40:59.429Z,1365
2018-02-23T12:41:31.500Z,1350
2018-02-23T12:42:03.616Z,1345
2018-02-23T12:42:35.628Z,1315
2018-02-23T12:43:07.662Z,1310
2018-02-23T12:43:39.691Z,1315
2018-02-23T12:44:11.850Z,1325
2018-02-23T12:44:43.874Z,1345
2018-02-23T12:45:15.901Z,1340
2018-02-23T12:45:47.930Z,1340
2018-02-23T12:46:20.019Z,1340
2018-02-23T12:46:52.021Z,1360
2018-02-23T12:47:24.019Z,1400
2018-02-23T12:47:56.051Z,1380
2018-02-23T12:48:28.106Z,1355
2018-02-23T12:49:00.093Z,1380
2018-02-23T12:49:32.115Z,1385
2018-02-23T12:50:04.149Z,1400
2018-02-23T12:50:36.179Z,1445
2018-02-23T12:51:08.216Z,1455
2018-02-23T12:51:40.252Z,1455
2018-02-23T12:52:12.309Z,1475
2018-02-23T12:52:44.317Z,1465
2018-02-23T12:53:17.148Z,1510
2018-02-23T12:53:49.148Z,1530
2018-02-23T12:54:21.154Z,1555
2018-02-23T12:54:53.859Z,1580
2018-02-23T12:55:25.861Z,1595
2018-02-23T12:55:57.993Z,1665
2018-02-23T12:56:30.081Z,1695
2018-02-23T12:57:02.129Z,1650
2018-02-23T12:57:34.145Z,1605
2018-02-23T12:58:06.156Z,1560
2018-02-23T12:58:38.188Z,1530
2018-02-23T12:59:10.225Z,1500
2018-02-23T12:59:42.291Z,1550
2018-02-23T13:00:14.262Z,1610
2018-02-23T13:00:46.279Z,1650
2018-02-23T13:01:18.315Z,1640
2018-02-23T13:01:50.411Z,1620
2018-02-23T13:02:22.450Z,1620
2018-02-23T13:02:54.510Z,1625
2018-02-23T13:03:26.527Z,1640
2018-02-23T13:03:58.547Z,1675
2018-02-23T13:04:30.594Z,1675
2018-02-23T13:05:02.639Z,1700
2018-02-23T13:05:34.726Z,1670
2018-02-23T13:06:06.758Z,1610
2018-02-23T13:06:39.430Z,1725
2018-02-23T13:07:11.511Z,1715
2018-02-23T13:07:44.337Z,1710
2018-02-23T13:08:16.318Z,1630
2018-02-23T13:08:48.310Z,1740
2018-02-23T13:09:20.370Z,1725
2018-02-23T13:09:52.358Z,1670
2018-02-23T13:10:24.372Z,1680
2018-02-23T13:10:56.401Z,1745
2018-02-23T13:11:28.424Z,1780
2018-02-23T13:12:00.453Z,1760
2018-02-23T13:12:32.513Z,1800
2018-02-23T13:13:04.529Z,1870
2018-02-23T13:13:36.613Z,1860
2018-02-23T13:14:08.633Z,1860
2018-02-23T13:14:40.669Z,1830
2018-02-23T13:15:12.711Z,1820
2018-02-23T13:15:44.714Z,1815
2018-02-23T13:16:16.728Z,1830
2018-02-23T13:16:48.751Z,1790
2018-02-23T13:17:20.752Z,1790
2018-02-23T13:17:52.790Z,1755
2018-02-23T13:18:24.788Z,1745
2018-02-23T13:18:56.815Z,1715
2018-02-23T13:19:28.859Z,1720
2018-02-23T13:20:00.941Z,1755
2018-02-23T13:20:32.934Z,1750
2018-02-23T13:21:04.988Z,1785
2018-02-23T13:21:37.965Z,1800
2018-02-23T13:22:09.954Z,1815
2018-02-23T13:22:42.001Z,1810
2018-02-23T13:23:14.006Z,1825
2018-02-23T13:23:46.168Z,1830
2018-02-23T13:24:18.195Z,1815
2018-02-23T13:24:50.300Z,1850
2018-02-23T13:25:22.302Z,1855
2018-02-23T13:25:54.329Z,1865
2018-02-23T13:26:26.430Z,1875
2018-02-23T13:26:58.456Z,1895
2018-02-23T13:27:30.517Z,1890
2018-02-23T13:28:02.560Z,1890
2018-02-23T13:28:34.555Z,1905
2018-02-23T13:29:06.561Z,1900
2018-02-23T13:29:39.072Z,1870
2018-02-23T13:30:11.098Z,1870
2018-02-23T13:30:43.084Z,1870
2018-02-23T13:31:15.197Z,1880
2018-02-23T13:31:47.218Z,1880
2018-02-23T13:32:19.240Z,1890
2018-02-23T13:32:51.257Z,1920
2018-02-23T13:33:23.303Z,1930
2018-02-23T13:33:55.310Z,1890
2018-02-23T13:34:27.368Z,1880
2018-02-23T13:34:59.406Z,1850
2018-02-23T13:35:31.431Z,1875
2018-02-23T13:36:03.452Z,1865
2018-02-23T13:36:35.490Z,1865
2018-02-23T13:37:07.519Z,1845
2018-02-23T13:37:39.470Z,1800
2018-02-23T13:38:11.500Z,1790
2018-02-23T13:38:45.575Z,1815
2018-02-23T13:39:17.581Z,1855
2018-02-23T13:39:49.601Z,1875
2018-02-23T13:40:21.613Z,1880
2018-02-23T13:40:53.645Z,1875
2018-02-23T13:41:25.651Z,1795
2018-02-23T13:41:57.665Z,1765
2018-02-23T13:42:29.660Z,1740
2018-02-23T13:43:01.701Z,1705
2018-02-23T13:43:33.742Z,1700
2018-02-23T13:44:05.784Z,1670
2018-02-23T13:44:37.803Z,1650
2018-02-23T13:45:09.788Z,1615
2018-02-23T13:45:41.822Z,1585
2018-02-23T13:46:13.823Z,1575
2018-02-23T13:46:45.828Z,1565
2018-02-23T13:47:17.810Z,1570
2018-02-23T13:47:49.865Z,1595
2018-02-23T13:48:21.890Z,1615
2018-02-23T13:48:53.948Z,1640
2018-02-23T13:49:26.088Z,1640
2018-02-23T13:49:58.061Z,1660
2018-02-23T13:50:30.099Z,1685
2018-02-23T13:51:02.152Z,1660
2018-02-23T13:51:34.191Z,1630
2018-02-23T13:52:06.218Z,1605
2018-02-23T13:52:38.286Z,1605
2018-02-23T13:53:10.349Z,1590
2018-02-23T13:53:42.398Z,1585
2018-02-23T13:54:14.430Z,1570
2018-02-23T13:54:46.432Z,1625
2018-02-23T13:55:18.480Z,1615
2018-02-23T13:55:50.519Z,1625
2018-02-23T13:56:22.583Z,1605